sensor_id;sensor_type;location;lat;lon;timestamp;pressure;altitude;pressure_sealevel;temperature;humidity
50590;BME280;36547;50.514;30.840;2023-05-20T00:00:17;100895.66;;;16.74;69.72
50590;BME280;36547;50.514;30.840;2023-05-20T00:01:20;100887.84;;;16.71;69.72
50590;BME280;36547;50.514;30.840;2023-05-20T00:02:23;100891.16;;;16.75;69.69
50590;BME280;36547;50.514;30.840;2023-05-20T00:03:26;100888.61;;;16.73;69.62
50590;BME280;36547;50.514;30.840;2023-05-20T00:04:28;100889.56;;;16.72;69.67
50590;BME280;36547;50.514;30.840;2023-05-20T00:05:31;100890.52;;;16.71;69.63
50590;BME280;36547;50.514;30.840;2023-05-20T00:06:33;100896.85;;;16.70;69.77
50590;BME280;36547;50.514;30.840;2023-05-20T00:07:35;100894.17;;;16.70;69.70
50590;BME280;36547;50.514;30.840;2023-05-20T00:08:37;100895.13;;;16.69;69.72
50590;BME280;36547;50.514;30.840;2023-05-20T00:09:40;100888.80;;;16.70;69.72
50590;BME280;36547;50.514;30.840;2023-05-20T00:10:43;100894.17;;;16.70;69.73
50590;BME280;36547;50.514;30.840;2023-05-20T00:11:45;100888.98;;;16.67;69.66
50590;BME280;36547;50.514;30.840;2023-05-20T00:12:47;100878.45;;;16.64;69.76
50590;BME280;36547;50.514;30.840;2023-05-20T00:13:50;100887.45;;;16.63;69.76
50590;BME280;36547;50.514;30.840;2023-05-20T00:14:52;100881.30;;;16.61;69.86
50590;BME280;36547;50.514;30.840;2023-05-20T00:15:56;100883.24;;;16.59;69.99
50590;BME280;36547;50.514;30.840;2023-05-20T00:16:59;100888.61;;;16.59;69.89
50590;BME280;36547;50.514;30.840;2023-05-20T00:18:02;100883.44;;;16.56;69.99
50590;BME280;36547;50.514;30.840;2023-05-20T00:19:05;100875.38;;;16.56;69.92
50590;BME280;36547;50.514;30.840;2023-05-20T00:20:08;100876.25;;;16.56;69.93
50590;BME280;36547;50.514;30.840;2023-05-20T00:21:11;100878.16;;;16.54;69.96
50590;BME280;36547;50.514;30.840;2023-05-20T00:22:13;100874.91;;;16.49;70.05
50590;BME280;36547;50.514;30.840;2023-05-20T00:23:15;100882.86;;;16.51;70.08
50590;BME280;36547;50.514;30.840;2023-05-20T00:24:17;100874.91;;;16.49;70.07
50590;BME280;36547;50.514;30.840;2023-05-20T00:25:20;100876.18;;;16.44;70.21
50590;BME280;36547;50.514;30.840;2023-05-20T00:26:22;100872.31;;;16.48;70.18
50590;BME280;36547;50.514;30.840;2023-05-20T00:27:26;100866.85;;;16.49;70.12
50590;BME280;36547;50.514;30.840;2023-05-20T00:28:29;100874.04;;;16.49;70.04
50590;BME280;36547;50.514;30.840;2023-05-20T00:29:32;100872.13;;;16.51;70.00
50590;BME280;36547;50.514;30.840;2023-05-20T00:30:35;100877.30;;;16.54;69.90
50590;BME280;36547;50.514;30.840;2023-05-20T00:31:37;100874.52;;;16.55;69.82
50590;BME280;36547;50.514;30.840;2023-05-20T00:32:40;100874.42;;;16.57;69.74
50590;BME280;36547;50.514;30.840;2023-05-20T00:33:42;100867.43;;;16.54;69.77
50590;BME280;36547;50.514;30.840;2023-05-20T00:35:57;100864.83;;;16.67;69.65
50590;BME280;36547;50.514;30.840;2023-05-20T00:37:00;100871.27;;;16.50;69.90
50590;BME280;36547;50.514;30.840;2023-05-20T00:38:02;100874.04;;;16.49;69.98
50590;BME280;36547;50.514;30.840;2023-05-20T00:39:05;100872.31;;;16.48;69.94
50590;BME280;36547;50.514;30.840;2023-05-20T00:40:08;100871.27;;;16.50;69.83
50590;BME280;36547;50.514;30.840;2023-05-20T00:41:11;100865.03;;;16.50;69.89
50590;BME280;36547;50.514;30.840;2023-05-20T00:42:23;100874.91;;;16.49;69.91
50590;BME280;36547;50.514;30.840;2023-05-20T00:43:26;100883.81;;;16.50;69.92
50590;BME280;36547;50.514;30.840;2023-05-20T00:44:29;100874.04;;;16.49;69.89
50590;BME280;36547;50.514;30.840;2023-05-20T00:45:31;100878.73;;;16.45;69.97
50590;BME280;36547;50.514;30.840;2023-05-20T00:46:34;100878.96;;;16.42;70.18
50590;BME280;36547;50.514;30.840;2023-05-20T00:47:37;100876.18;;;16.44;70.08
50590;BME280;36547;50.514;30.840;2023-05-20T00:48:42;100882.70;;;16.40;70.23
50590;BME280;36547;50.514;30.840;2023-05-20T00:49:45;100882.60;;;16.41;70.10
50590;BME280;36547;50.514;30.840;2023-05-20T00:50:50;100879.15;;;16.39;70.16
50590;BME280;36547;50.514;30.840;2023-05-20T00:51:53;100871.87;;;16.41;70.11
50590;BME280;36547;50.514;30.840;2023-05-20T00:52:55;100879.82;;;16.43;70.07
50590;BME280;36547;50.514;30.840;2023-05-20T00:53:57;100879.60;;;16.46;69.96
50590;BME280;36547;50.514;30.840;2023-05-20T00:55:00;100877.69;;;16.48;69.91
50590;BME280;36547;50.514;30.840;2023-05-20T00:56:03;100884.77;;;16.49;69.87
50590;BME280;36547;50.514;30.840;2023-05-20T00:57:07;100882.86;;;16.51;69.77
50590;BME280;36547;50.514;30.840;2023-05-20T00:58:10;100878.36;;;16.51;69.75
50590;BME280;36547;50.514;30.840;2023-05-20T00:59:13;100876.44;;;16.53;69.66
50590;BME280;36547;50.514;30.840;2023-05-20T01:00:16;100872.80;;;16.54;69.55
50590;BME280;36547;50.514;30.840;2023-05-20T01:01:19;100881.13;;;16.50;69.62
50590;BME280;36547;50.514;30.840;2023-05-20T01:02:21;100880.08;;;16.52;69.52
50590;BME280;36547;50.514;30.840;2023-05-20T01:03:24;100880.08;;;16.52;69.45
50590;BME280;36547;50.514;30.840;2023-05-20T01:04:27;100880.47;;;16.46;69.58
50590;BME280;36547;50.514;30.840;2023-05-20T01:05:30;100881.13;;;16.50;69.53
50590;BME280;36547;50.514;30.840;2023-05-20T01:06:32;100881.13;;;16.50;69.54
50590;BME280;36547;50.514;30.840;2023-05-20T01:07:34;100877.69;;;16.48;69.57
50590;BME280;36547;50.514;30.840;2023-05-20T01:08:37;100877.69;;;16.48;69.48
50590;BME280;36547;50.514;30.840;2023-05-20T01:09:39;100878.64;;;16.47;69.53
50590;BME280;36547;50.514;30.840;2023-05-20T01:10:45;100877.87;;;16.45;69.61
50590;BME280;36547;50.514;30.840;2023-05-20T01:11:53;100878.87;;;16.44;69.70
50590;BME280;36547;50.514;30.840;2023-05-20T01:12:57;100883.46;;;16.42;69.64
50590;BME280;36547;50.514;30.840;2023-05-20T01:14:02;100876.75;;;16.35;69.84
50590;BME280;36547;50.514;30.840;2023-05-20T01:15:11;100875.03;;;16.34;69.84
50590;BME280;36547;50.514;30.840;2023-05-20T01:16:17;100875.89;;;16.34;69.85
50590;BME280;36547;50.514;30.840;2023-05-20T01:17:19;100874.39;;;16.30;69.85
50590;BME280;36547;50.514;30.840;2023-05-20T01:18:24;100878.02;;;16.29;69.93
50590;BME280;36547;50.514;30.840;2023-05-20T01:19:42;100875.22;;;16.31;69.93
50590;BME280;36547;50.514;30.840;2023-05-20T01:20:48;100871.98;;;16.25;70.05
50590;BME280;36547;50.514;30.840;2023-05-20T01:21:52;100870.17;;;16.26;69.92
50590;BME280;36547;50.514;30.840;2023-05-20T01:22:55;100868.44;;;16.25;70.01
50590;BME280;36547;50.514;30.840;2023-05-20T01:23:58;100872.66;;;16.29;69.89
50590;BME280;36547;50.514;30.840;2023-05-20T01:25:01;100861.16;;;16.27;69.84
50590;BME280;36547;50.514;30.840;2023-05-20T01:26:03;100866.63;;;16.25;69.71
50590;BME280;36547;50.514;30.840;2023-05-20T01:27:09;100873.52;;;16.30;69.62
50590;BME280;36547;50.514;30.840;2023-05-20T01:28:11;100863.08;;;16.25;69.69
50590;BME280;36547;50.514;30.840;2023-05-20T01:29:14;100870.27;;;16.24;69.67
50590;BME280;36547;50.514;30.840;2023-05-20T01:30:16;100873.03;;;16.23;69.73
50590;BME280;36547;50.514;30.840;2023-05-20T01:31:23;100871.22;;;16.23;69.73
50590;BME280;36547;50.514;30.840;2023-05-20T01:32:36;100869.40;;;16.24;69.71
50590;BME280;36547;50.514;30.840;2023-05-20T01:33:42;100876.67;;;16.22;69.79
50590;BME280;36547;50.514;30.840;2023-05-20T01:34:50;100872.17;;;16.22;69.53
50590;BME280;36547;50.514;30.840;2023-05-20T01:35:54;100878.50;;;16.21;69.52
50590;BME280;36547;50.514;30.840;2023-05-20T01:36:57;100877.73;;;16.19;69.47
50590;BME280;36547;50.514;30.840;2023-05-20T01:37:59;100876.09;;;16.17;69.59
50590;BME280;36547;50.514;30.840;2023-05-20T01:39:02;100874.50;;;16.14;69.68
50590;BME280;36547;50.514;30.840;2023-05-20T01:40:06;100878.91;;;16.15;69.67
50590;BME280;36547;50.514;30.840;2023-05-20T01:41:11;100872.68;;;16.15;69.62
50590;BME280;36547;50.514;30.840;2023-05-20T01:42:14;100868.27;;;16.14;69.43
50590;BME280;36547;50.514;30.840;2023-05-20T01:43:17;100873.73;;;16.12;69.48
50590;BME280;36547;50.514;30.840;2023-05-20T01:44:20;100872.19;;;16.08;69.58
50590;BME280;36547;50.514;30.840;2023-05-20T01:45:23;100875.73;;;16.09;69.59
50590;BME280;36547;50.514;30.840;2023-05-20T01:46:26;100873.91;;;16.09;69.63
50590;BME280;36547;50.514;30.840;2023-05-20T01:47:28;100880.14;;;16.10;69.42
50590;BME280;36547;50.514;30.840;2023-05-20T01:48:31;100875.73;;;16.09;69.29
50590;BME280;36547;50.514;30.840;2023-05-20T01:49:33;100885.59;;;16.08;69.26
50590;BME280;36547;50.514;30.840;2023-05-20T01:50:37;100881.95;;;16.09;69.23
50590;BME280;36547;50.514;30.840;2023-05-20T01:51:39;100880.42;;;16.05;69.26
50590;BME280;36547;50.514;30.840;2023-05-20T01:52:41;100885.69;;;16.07;69.21
50590;BME280;36547;50.514;30.840;2023-05-20T01:53:44;100878.51;;;16.07;69.17
50590;BME280;36547;50.514;30.840;2023-05-20T01:54:46;100876.78;;;16.06;69.04
50590;BME280;36547;50.514;30.840;2023-05-20T01:55:49;100877.73;;;16.05;69.12
50590;BME280;36547;50.514;30.840;2023-05-20T01:56:51;100885.97;;;16.02;69.06
50590;BME280;36547;50.514;30.840;2023-05-20T01:57:56;100883.28;;;16.02;68.97
50590;BME280;36547;50.514;30.840;2023-05-20T01:58:59;100878.91;;;16.01;68.93
50590;BME280;36547;50.514;30.840;2023-05-20T02:00:02;100882.55;;;16.00;68.94
50590;BME280;36547;50.514;30.840;2023-05-20T02:01:07;100886.19;;;15.99;68.97
50590;BME280;36547;50.514;30.840;2023-05-20T02:02:09;100879.09;;;15.98;68.96
50590;BME280;36547;50.514;30.840;2023-05-20T02:03:12;100883.69;;;15.96;68.98
50590;BME280;36547;50.514;30.840;2023-05-20T02:04:15;100885.59;;;15.94;68.98
50590;BME280;36547;50.514;30.840;2023-05-20T02:05:17;100879.28;;;15.95;69.00
50590;BME280;36547;50.514;30.840;2023-05-20T02:06:20;100882.91;;;15.94;68.97
50590;BME280;36547;50.514;30.840;2023-05-20T02:07:22;100877.55;;;15.94;68.93
50590;BME280;36547;50.514;30.840;2023-05-20T02:08:26;100885.78;;;15.91;68.98
50590;BME280;36547;50.514;30.840;2023-05-20T02:09:29;100877.05;;;15.87;68.98
50590;BME280;36547;50.514;30.840;2023-05-20T02:10:31;100883.28;;;15.88;69.01
50590;BME280;36547;50.514;30.840;2023-05-20T02:11:34;100881.37;;;15.90;68.85
50590;BME280;36547;50.514;30.840;2023-05-20T02:12:36;100881.55;;;15.87;69.00
50590;BME280;36547;50.514;30.840;2023-05-20T02:13:39;100887.13;;;15.84;68.99
50590;BME280;36547;50.514;30.840;2023-05-20T02:14:44;100887.91;;;15.86;68.96
50590;BME280;36547;50.514;30.840;2023-05-20T02:15:52;100884.64;;;15.95;69.00
50590;BME280;36547;50.514;30.840;2023-05-20T02:16:55;100886.27;;;15.83;69.06
50590;BME280;36547;50.514;30.840;2023-05-20T02:17:57;100887.13;;;15.84;69.12
50590;BME280;36547;50.514;30.840;2023-05-20T02:18:59;100885.22;;;15.86;69.04
50590;BME280;36547;50.514;30.840;2023-05-20T02:20:03;100888.64;;;15.88;68.88
50590;BME280;36547;50.514;30.840;2023-05-20T02:21:08;100892.28;;;15.87;68.72
50590;BME280;36547;50.514;30.840;2023-05-20T02:22:10;100883.50;;;15.85;68.93
50590;BME280;36547;50.514;30.840;2023-05-20T02:23:13;100890.77;;;15.83;68.99
50590;BME280;36547;50.514;30.840;2023-05-20T02:24:15;100889.05;;;15.82;68.98
50590;BME280;36547;50.514;30.840;2023-05-20T02:25:18;100891.63;;;15.83;68.87
50590;BME280;36547;50.514;30.840;2023-05-20T02:26:20;100893.54;;;15.81;68.72
50590;BME280;36547;50.514;30.840;2023-05-20T02:27:23;100892.49;;;15.84;68.76
50590;BME280;36547;50.514;30.840;2023-05-20T02:28:26;100890.95;;;15.80;68.78
50590;BME280;36547;50.514;30.840;2023-05-20T02:29:30;100895.45;;;15.79;68.94
50590;BME280;36547;50.514;30.840;2023-05-20T02:30:32;100904.44;;;15.78;68.84
50590;BME280;36547;50.514;30.840;2023-05-20T02:31:34;100890.09;;;15.79;68.98
50590;BME280;36547;50.514;30.840;2023-05-20T02:32:37;100895.36;;;15.81;68.67
50590;BME280;36547;50.514;30.840;2023-05-20T02:33:40;100899.77;;;15.82;68.50
50590;BME280;36547;50.514;30.840;2023-05-20T02:34:43;100892.67;;;15.81;68.43
50590;BME280;36547;50.514;30.840;2023-05-20T02:35:45;100894.67;;;15.77;68.32
50590;BME280;36547;50.514;30.840;2023-05-20T02:36:48;100895.63;;;15.76;68.42
50590;BME280;36547;50.514;30.840;2023-05-20T02:37:51;100899.27;;;15.75;68.58
50590;BME280;36547;50.514;30.840;2023-05-20T02:38:54;100894.95;;;15.73;68.51
50590;BME280;36547;50.514;30.840;2023-05-20T02:39:57;100893.44;;;15.69;68.49
50590;BME280;36547;50.514;30.840;2023-05-20T02:40:59;100891.70;;;15.68;68.52
50590;BME280;36547;50.514;30.840;2023-05-20T02:42:02;100895.34;;;15.67;68.68
50590;BME280;36547;50.514;30.840;2023-05-20T02:43:04;100888.08;;;15.69;68.57
50590;BME280;36547;50.514;30.840;2023-05-20T02:44:08;100901.47;;;15.69;68.54
50590;BME280;36547;50.514;30.840;2023-05-20T02:45:10;100904.33;;;15.66;68.64
50590;BME280;36547;50.514;30.840;2023-05-20T02:46:13;100902.61;;;15.65;68.65
50590;BME280;36547;50.514;30.840;2023-05-20T02:47:16;100900.11;;;15.62;68.60
50590;BME280;36547;50.514;30.840;2023-05-20T02:48:18;100908.14;;;15.62;68.64
50590;BME280;36547;50.514;30.840;2023-05-20T02:49:21;100902.01;;;15.60;68.67
50590;BME280;36547;50.514;30.840;2023-05-20T02:50:23;100903.95;;;15.58;68.80
50590;BME280;36547;50.514;30.840;2023-05-20T02:51:25;100900.41;;;15.57;68.75
50590;BME280;36547;50.514;30.840;2023-05-20T02:52:28;100903.17;;;15.55;68.81
50590;BME280;36547;50.514;30.840;2023-05-20T02:53:30;100910.34;;;15.55;68.78
50590;BME280;36547;50.514;30.840;2023-05-20T02:54:33;100903.50;;;15.49;68.88
50590;BME280;36547;50.514;30.840;2023-05-20T02:55:36;100900.04;;;15.47;69.10
50590;BME280;36547;50.514;30.840;2023-05-20T02:56:39;100907.99;;;15.49;69.16
50590;BME280;36547;50.514;30.840;2023-05-20T02:57:41;100912.57;;;15.47;69.19
50590;BME280;36547;50.514;30.840;2023-05-20T02:58:44;100904.53;;;15.47;69.13
50590;BME280;36547;50.514;30.840;2023-05-20T02:59:46;100906.34;;;15.46;69.11
50590;BME280;36547;50.514;30.840;2023-05-20T03:00:49;100906.44;;;15.45;69.25
50590;BME280;36547;50.514;30.840;2023-05-20T03:01:52;100908.37;;;15.43;69.21
50590;BME280;36547;50.514;30.840;2023-05-20T03:02:54;100914.77;;;15.40;69.37
50590;BME280;36547;50.514;30.840;2023-05-20T03:03:56;100913.91;;;15.40;69.40
50590;BME280;36547;50.514;30.840;2023-05-20T03:04:59;100914.95;;;15.37;69.52
50590;BME280;36547;50.514;30.840;2023-05-20T03:06:01;100911.31;;;15.38;69.56
50590;BME280;36547;50.514;30.840;2023-05-20T03:07:05;100913.13;;;15.38;69.48
50590;BME280;36547;50.514;30.840;2023-05-20T03:08:08;100911.58;;;15.34;69.54
50590;BME280;36547;50.514;30.840;2023-05-20T03:09:11;100912.45;;;15.34;69.61
50590;BME280;36547;50.514;30.840;2023-05-20T03:10:14;100909.94;;;15.31;69.74
50590;BME280;36547;50.514;30.840;2023-05-20T03:11:17;100909.94;;;15.31;69.72
50590;BME280;36547;50.514;30.840;2023-05-20T03:12:19;100912.70;;;15.30;69.91
50590;BME280;36547;50.514;30.840;2023-05-20T03:13:21;100917.23;;;15.29;69.80
50590;BME280;36547;50.514;30.840;2023-05-20T03:14:23;100920.95;;;15.27;69.90
50590;BME280;36547;50.514;30.840;2023-05-20T03:15:26;100919.13;;;15.27;70.03
50590;BME280;36547;50.514;30.840;2023-05-20T03:16:28;100917.98;;;15.31;69.98
50590;BME280;36547;50.514;30.840;2023-05-20T03:17:32;100917.02;;;15.32;69.82
50590;BME280;36547;50.514;30.840;2023-05-20T03:18:34;100920.48;;;15.34;69.72
50590;BME280;36547;50.514;30.840;2023-05-20T03:19:37;100924.11;;;15.33;69.82
50590;BME280;36547;50.514;30.840;2023-05-20T03:20:39;100917.80;;;15.34;69.78
50590;BME280;36547;50.514;30.840;2023-05-20T03:21:42;100923.94;;;15.36;69.63
50590;BME280;36547;50.514;30.840;2023-05-20T03:22:44;100925.66;;;15.37;69.64
50590;BME280;36547;50.514;30.840;2023-05-20T03:23:46;100919.44;;;15.37;69.68
50590;BME280;36547;50.514;30.840;2023-05-20T03:24:49;100929.29;;;15.36;69.76
50590;BME280;36547;50.514;30.840;2023-05-20T03:25:51;100926.52;;;15.38;69.81
50590;BME280;36547;50.514;30.840;2023-05-20T03:26:54;100929.20;;;15.38;69.76
50590;BME280;36547;50.514;30.840;2023-05-20T03:27:57;100934.47;;;15.39;69.83
50590;BME280;36547;50.514;30.840;2023-05-20T03:28:59;100927.56;;;15.35;69.51
50590;BME280;36547;50.514;30.840;2023-05-20T03:30:02;100926.78;;;15.33;69.68
50590;BME280;36547;50.514;30.840;2023-05-20T03:31:06;100935.69;;;15.34;69.74
50590;BME280;36547;50.514;30.840;2023-05-20T03:32:09;100929.47;;;15.33;69.80
50590;BME280;36547;50.514;30.840;2023-05-20T03:33:12;100928.69;;;15.31;69.77
50590;BME280;36547;50.514;30.840;2023-05-20T03:34:15;100927.94;;;15.29;69.94
50590;BME280;36547;50.514;30.840;2023-05-20T03:35:18;100931.36;;;15.31;69.98
50590;BME280;36547;50.514;30.840;2023-05-20T03:36:22;100932.44;;;15.29;69.95
50590;BME280;36547;50.514;30.840;2023-05-20T03:37:25;100927.73;;;15.32;70.05
50590;BME280;36547;50.514;30.840;2023-05-20T03:38:27;100930.50;;;15.31;70.05
50590;BME280;36547;50.514;30.840;2023-05-20T03:39:29;100928.69;;;15.31;69.89
50590;BME280;36547;50.514;30.840;2023-05-20T03:40:32;100933.30;;;15.29;69.91
50590;BME280;36547;50.514;30.840;2023-05-20T03:41:34;100933.30;;;15.29;69.93
50590;BME280;36547;50.514;30.840;2023-05-20T03:42:37;100931.57;;;15.28;70.08
50590;BME280;36547;50.514;30.840;2023-05-20T03:43:40;100928.77;;;15.30;69.98
50590;BME280;36547;50.514;30.840;2023-05-20T03:44:42;100929.84;;;15.27;69.95
50590;BME280;36547;50.514;30.840;2023-05-20T03:45:44;100927.17;;;15.27;70.10
50590;BME280;36547;50.514;30.840;2023-05-20T03:46:48;100927.17;;;15.27;70.10
50590;BME280;36547;50.514;30.840;2023-05-20T03:47:51;100935.37;;;15.24;70.09
50590;BME280;36547;50.514;30.840;2023-05-20T03:48:54;100931.74;;;15.25;70.13
50590;BME280;36547;50.514;30.840;2023-05-20T03:49:56;100932.70;;;15.24;70.21
50590;BME280;36547;50.514;30.840;2023-05-20T03:50:59;100926.30;;;15.27;70.17
50590;BME280;36547;50.514;30.840;2023-05-20T03:52:01;100926.22;;;15.28;70.16
50590;BME280;36547;50.514;30.840;2023-05-20T03:53:04;100923.33;;;15.31;70.13
50590;BME280;36547;50.514;30.840;2023-05-20T03:54:08;100930.33;;;15.34;69.96
50590;BME280;36547;50.514;30.840;2023-05-20T03:55:10;100931.19;;;15.34;70.08
50590;BME280;36547;50.514;30.840;2023-05-20T03:56:13;100933.70;;;15.37;70.00
50590;BME280;36547;50.514;30.840;2023-05-20T03:57:15;100925.48;;;15.40;69.89
50590;BME280;36547;50.514;30.840;2023-05-20T03:58:18;100930.76;;;15.42;69.78
50590;BME280;36547;50.514;30.840;2023-05-20T03:59:21;100932.36;;;15.44;69.65
50590;BME280;36547;50.514;30.840;2023-05-20T04:00:23;100928.73;;;15.45;69.68
50590;BME280;36547;50.514;30.840;2023-05-20T04:01:26;100930.67;;;15.43;69.69
50590;BME280;36547;50.514;30.840;2023-05-20T04:02:29;100936.03;;;15.43;69.67
50590;BME280;36547;50.514;30.840;2023-05-20T04:03:32;100933.52;;;15.40;69.75
50590;BME280;36547;50.514;30.840;2023-05-20T04:04:34;100939.74;;;15.41;69.72
50590;BME280;36547;50.514;30.840;2023-05-20T04:05:37;100942.42;;;15.41;69.77
50590;BME280;36547;50.514;30.840;2023-05-20T04:06:42;100944.15;;;15.42;69.78
50590;BME280;36547;50.514;30.840;2023-05-20T04:07:45;100939.92;;;15.38;69.89
50590;BME280;36547;50.514;30.840;2023-05-20T04:08:47;100948.64;;;15.41;69.96
50590;BME280;36547;50.514;30.840;2023-05-20T04:09:50;100951.23;;;15.43;69.95
50590;BME280;36547;50.514;30.840;2023-05-20T04:10:55;100947.57;;;15.44;69.91
50590;BME280;36547;50.514;30.840;2023-05-20T04:11:58;100946.63;;;15.45;69.82
50590;BME280;36547;50.514;30.840;2023-05-20T04:13:00;100949.30;;;15.45;69.76
50590;BME280;36547;50.514;30.840;2023-05-20T04:14:03;100955.52;;;15.45;69.76
50590;BME280;36547;50.514;30.840;2023-05-20T04:15:06;100954.78;;;15.43;69.83
50590;BME280;36547;50.514;30.840;2023-05-20T04:16:10;100953.80;;;15.44;69.79
50590;BME280;36547;50.514;30.840;2023-05-20T04:17:12;100956.47;;;15.44;69.96
50590;BME280;36547;50.514;30.840;2023-05-20T04:18:14;100950.16;;;15.45;69.96
50590;BME280;36547;50.514;30.840;2023-05-20T04:19:16;100956.47;;;15.44;69.94
50590;BME280;36547;50.514;30.840;2023-05-20T04:20:19;100960.88;;;15.45;69.96
50590;BME280;36547;50.514;30.840;2023-05-20T04:21:23;100955.52;;;15.45;70.04
50590;BME280;36547;50.514;30.840;2023-05-20T04:22:25;100953.80;;;15.44;69.98
50590;BME280;36547;50.514;30.840;2023-05-20T04:23:28;100952.93;;;15.44;69.90
50590;BME280;36547;50.514;30.840;2023-05-20T04:24:30;100954.66;;;15.45;70.01
50590;BME280;36547;50.514;30.840;2023-05-20T04:25:32;100959.15;;;15.44;70.01
50590;BME280;36547;50.514;30.840;2023-05-20T04:26:35;100948.35;;;15.46;70.12
50590;BME280;36547;50.514;30.840;2023-05-20T04:27:37;100957.08;;;15.49;70.01
50590;BME280;36547;50.514;30.840;2023-05-20T04:28:39;100953.45;;;15.50;70.07
50590;BME280;36547;50.514;30.840;2023-05-20T04:29:42;100954.31;;;15.51;70.01
50590;BME280;36547;50.514;30.840;2023-05-20T04:30:45;100951.31;;;15.57;69.86
50590;BME280;36547;50.514;30.840;2023-05-20T04:31:47;100952.92;;;15.60;69.50
50590;BME280;36547;50.514;30.840;2023-05-20T04:32:51;100953.52;;;15.65;69.58
50590;BME280;36547;50.514;30.840;2023-05-20T04:33:56;100949.70;;;15.69;69.49
50590;BME280;36547;50.514;30.840;2023-05-20T04:34:59;100955.75;;;15.72;69.42
50590;BME280;36547;50.514;30.840;2023-05-20T04:36:02;100957.36;;;15.75;68.97
50590;BME280;36547;50.514;30.840;2023-05-20T04:37:05;100959.09;;;15.76;68.72
50590;BME280;36547;50.514;30.840;2023-05-20T04:38:07;100965.23;;;15.78;68.63
50590;BME280;36547;50.514;30.840;2023-05-20T04:39:10;100953.55;;;15.79;68.53
50590;BME280;36547;50.514;30.840;2023-05-20T04:40:13;100955.45;;;15.77;68.49
50590;BME280;36547;50.514;30.840;2023-05-20T04:41:15;100961.59;;;15.79;68.51
50590;BME280;36547;50.514;30.840;2023-05-20T04:42:18;100967.73;;;15.81;68.56
50590;BME280;36547;50.514;30.840;2023-05-20T04:43:21;100960.46;;;15.83;68.93
50590;BME280;36547;50.514;30.840;2023-05-20T04:44:23;100968.32;;;15.86;68.88
50590;BME280;36547;50.514;30.840;2023-05-20T04:45:26;100961.98;;;15.87;68.13
50590;BME280;36547;50.514;30.840;2023-05-20T04:46:29;100969.06;;;15.88;67.98
50590;BME280;36547;50.514;30.840;2023-05-20T04:47:32;100961.02;;;15.88;67.79
50590;BME280;36547;50.514;30.840;2023-05-20T04:48:35;100963.70;;;15.88;68.05
50590;BME280;36547;50.514;30.840;2023-05-20T04:49:37;100967.06;;;15.91;68.00
50590;BME280;36547;50.514;30.840;2023-05-20T04:50:41;100961.62;;;15.93;67.65
50590;BME280;36547;50.514;30.840;2023-05-20T04:51:44;100964.20;;;15.95;67.50
50590;BME280;36547;50.514;30.840;2023-05-20T04:52:46;100957.89;;;15.96;67.41
50590;BME280;36547;50.514;30.840;2023-05-20T04:53:49;100964.98;;;15.97;67.37
50590;BME280;36547;50.514;30.840;2023-05-20T04:54:51;100961.25;;;15.99;67.43
50590;BME280;36547;50.514;30.840;2023-05-20T04:55:54;100968.34;;;16.00;67.48
50590;BME280;36547;50.514;30.840;2023-05-20T04:56:58;100966.41;;;16.02;67.32
50590;BME280;36547;50.514;30.840;2023-05-20T04:58:00;100969.86;;;16.04;67.27
50590;BME280;36547;50.514;30.840;2023-05-20T04:59:03;100958.95;;;16.07;67.36
50590;BME280;36547;50.514;30.840;2023-05-20T05:01:17;100963.38;;;16.22;67.08
50590;BME280;36547;50.514;30.840;2023-05-20T05:02:19;100957.72;;;16.13;67.19
50590;BME280;36547;50.514;30.840;2023-05-20T05:03:22;100964.60;;;16.17;67.13
50590;BME280;36547;50.514;30.840;2023-05-20T05:04:24;100960.01;;;16.19;66.64
50590;BME280;36547;50.514;30.840;2023-05-20T05:05:27;100962.50;;;16.22;66.31
50590;BME280;36547;50.514;30.840;2023-05-20T05:06:29;100957.05;;;16.23;66.49
50590;BME280;36547;50.514;30.840;2023-05-20T05:07:33;100959.55;;;16.26;66.41
50590;BME280;36547;50.514;30.840;2023-05-20T05:08:35;100956.77;;;16.28;66.59
50590;BME280;36547;50.514;30.840;2023-05-20T05:09:37;100955.69;;;16.31;66.46
50590;BME280;36547;50.514;30.840;2023-05-20T05:10:40;100955.69;;;16.31;66.20
50590;BME280;36547;50.514;30.840;2023-05-20T05:11:43;100952.83;;;16.34;66.14
50590;BME280;36547;50.514;30.840;2023-05-20T05:12:46;100957.23;;;16.35;66.04
50590;BME280;36547;50.514;30.840;2023-05-20T05:13:49;100949.19;;;16.35;66.14
50590;BME280;36547;50.514;30.840;2023-05-20T05:14:54;100951.69;;;16.38;66.34
50590;BME280;36547;50.514;30.840;2023-05-20T05:15:58;100948.81;;;16.41;66.28
50590;BME280;36547;50.514;30.840;2023-05-20T05:17:02;100951.31;;;16.44;66.27
50590;BME280;36547;50.514;30.840;2023-05-20T05:18:04;100956.45;;;16.47;66.11
50590;BME280;36547;50.514;30.840;2023-05-20T05:19:10;100956.27;;;16.50;65.85
50590;BME280;36547;50.514;30.840;2023-05-20T05:20:14;100957.81;;;16.54;66.10
50590;BME280;36547;50.514;30.840;2023-05-20T05:21:16;100950.34;;;16.59;66.06
50590;BME280;36547;50.514;30.840;2023-05-20T05:22:21;100959.22;;;16.59;65.44
50590;BME280;36547;50.514;30.840;2023-05-20T05:23:24;100957.24;;;16.63;65.12
50590;BME280;36547;50.514;30.840;2023-05-20T05:24:26;100961.56;;;16.66;65.03
50590;BME280;36547;50.514;30.840;2023-05-20T05:25:28;100966.83;;;16.67;64.83
50590;BME280;36547;50.514;30.840;2023-05-20T05:26:32;100963.95;;;16.70;64.79
50590;BME280;36547;50.514;30.840;2023-05-20T05:27:36;100964.82;;;16.71;64.76